sensor_id;sensor_type;location;lat;lon;timestamp;pressure;altitude;pressure_sealevel;temperature
34023;BMP280;20673;48.980;8.138;2024-02-26T00:00:44;98179.76;;;8.43
34023;BMP280;20673;48.980;8.138;2024-02-26T00:03:12;98188.65;;;8.45
34023;BMP280;20673;48.980;8.138;2024-02-26T00:05:38;98192.72;;;8.39
34023;BMP280;20673;48.980;8.138;2024-02-26T00:08:05;98195.81;;;8.43
34023;BMP280;20673;48.980;8.138;2024-02-26T00:10:32;98192.22;;;8.38
34023;BMP280;20673;48.980;8.138;2024-02-26T00:12:58;98190.23;;;8.39
34023;BMP280;20673;48.980;8.138;2024-02-26T00:15:24;98190.15;;;8.39
34023;BMP280;20673;48.980;8.138;2024-02-26T00:17:51;98198.00;;;8.40
34023;BMP280;20673;48.980;8.138;2024-02-26T00:20:17;98182.18;;;8.41
34023;BMP280;20673;48.980;8.138;2024-02-26T00:22:43;98198.49;;;8.31
34023;BMP280;20673;48.980;8.138;2024-02-26T00:25:09;98199.50;;;8.30
34023;BMP280;20673;48.980;8.138;2024-02-26T00:27:35;98203.65;;;8.27
34023;BMP280;20673;48.980;8.138;2024-02-26T00:30:01;98202.11;;;8.30
34023;BMP280;20673;48.980;8.138;2024-02-26T00:32:27;98185.62;;;8.32
34023;BMP280;20673;48.980;8.138;2024-02-26T00:34:53;98185.09;;;8.31
34023;BMP280;20673;48.980;8.138;2024-02-26T00:37:19;98183.81;;;8.31
34023;BMP280;20673;48.980;8.138;2024-02-26T00:39:46;98177.89;;;8.27
34023;BMP280;20673;48.980;8.138;2024-02-26T00:42:12;98181.39;;;8.28
34023;BMP280;20673;48.980;8.138;2024-02-26T00:44:38;98176.64;;;8.28
34023;BMP280;20673;48.980;8.138;2024-02-26T00:47:04;98180.29;;;8.31
34023;BMP280;20673;48.980;8.138;2024-02-26T00:49:30;98181.37;;;8.44
34023;BMP280;20673;48.980;8.138;2024-02-26T00:51:57;98182.47;;;8.51
34023;BMP280;20673;48.980;8.138;2024-02-26T00:54:23;98183.40;;;8.65
34023;BMP280;20673;48.980;8.138;2024-02-26T00:56:49;98189.79;;;8.80
34023;BMP280;20673;48.980;8.138;2024-02-26T00:59:15;98204.88;;;8.93
34023;BMP280;20673;48.980;8.138;2024-02-26T01:01:41;98205.25;;;9.02
34023;BMP280;20673;48.980;8.138;2024-02-26T01:04:07;98212.04;;;9.09
34023;BMP280;20673;48.980;8.138;2024-02-26T01:06:33;98211.04;;;9.20
34023;BMP280;20673;48.980;8.138;2024-02-26T01:08:59;98216.67;;;9.27
34023;BMP280;20673;48.980;8.138;2024-02-26T01:11:26;98219.70;;;9.34
34023;BMP280;20673;48.980;8.138;2024-02-26T01:13:52;98223.72;;;9.40
34023;BMP280;20673;48.980;8.138;2024-02-26T01:16:20;98221.11;;;9.33
34023;BMP280;20673;48.980;8.138;2024-02-26T01:18:46;98221.08;;;9.29
34023;BMP280;20673;48.980;8.138;2024-02-26T01:21:12;98218.61;;;9.25
34023;BMP280;20673;48.980;8.138;2024-02-26T01:23:38;98217.95;;;9.17
34023;BMP280;20673;48.980;8.138;2024-02-26T01:26:04;98222.79;;;9.10
34023;BMP280;20673;48.980;8.138;2024-02-26T01:28:31;98224.04;;;9.09
34023;BMP280;20673;48.980;8.138;2024-02-26T01:30:57;98211.48;;;9.03
34023;BMP280;20673;48.980;8.138;2024-02-26T01:33:26;98223.64;;;9.02
34023;BMP280;20673;48.980;8.138;2024-02-26T01:35:52;98218.60;;;9.00
34023;BMP280;20673;48.980;8.138;2024-02-26T01:38:19;98221.59;;;8.96
34023;BMP280;20673;48.980;8.138;2024-02-26T01:40:45;98227.12;;;8.88
34023;BMP280;20673;48.980;8.138;2024-02-26T01:43:11;98228.26;;;8.87
34023;BMP280;20673;48.980;8.138;2024-02-26T01:45:37;98230.62;;;8.82
34023;BMP280;20673;48.980;8.138;2024-02-26T01:48:04;98234.47;;;8.79
34023;BMP280;20673;48.980;8.138;2024-02-26T01:50:30;98237.09;;;8.72
34023;BMP280;20673;48.980;8.138;2024-02-26T01:52:57;98236.65;;;8.67
34023;BMP280;20673;48.980;8.138;2024-02-26T01:55:26;98240.72;;;8.70
34023;BMP280;20673;48.980;8.138;2024-02-26T01:57:53;98240.79;;;8.71
34023;BMP280;20673;48.980;8.138;2024-02-26T02:00:21;98249.74;;;8.71
34023;BMP280;20673;48.980;8.138;2024-02-26T02:02:48;98247.51;;;8.66
34023;BMP280;20673;48.980;8.138;2024-02-26T02:05:16;98252.86;;;8.65
34023;BMP280;20673;48.980;8.138;2024-02-26T02:07:45;98254.98;;;8.63
34023;BMP280;20673;48.980;8.138;2024-02-26T02:10:13;98252.09;;;8.63
34023;BMP280;20673;48.980;8.138;2024-02-26T02:12:39;98245.68;;;8.66
34023;BMP280;20673;48.980;8.138;2024-02-26T02:15:06;98241.42;;;8.62
34023;BMP280;20673;48.980;8.138;2024-02-26T02:17:33;98238.70;;;8.61
34023;BMP280;20673;48.980;8.138;2024-02-26T02:20:00;98233.91;;;8.60
34023;BMP280;20673;48.980;8.138;2024-02-26T02:22:27;98230.14;;;8.56
34023;BMP280;20673;48.980;8.138;2024-02-26T02:24:53;98229.62;;;8.53
34023;BMP280;20673;48.980;8.138;2024-02-26T02:27:20;98231.07;;;8.48
34023;BMP280;20673;48.980;8.138;2024-02-26T02:29:47;98222.98;;;8.41
34023;BMP280;20673;48.980;8.138;2024-02-26T02:32:15;98225.63;;;8.36
34023;BMP280;20673;48.980;8.138;2024-02-26T02:34:43;98224.17;;;8.28
34023;BMP280;20673;48.980;8.138;2024-02-26T02:37:09;98224.39;;;8.25
34023;BMP280;20673;48.980;8.138;2024-02-26T02:39:35;98223.78;;;8.19
34023;BMP280;20673;48.980;8.138;2024-02-26T02:42:01;98220.77;;;8.17
34023;BMP280;20673;48.980;8.138;2024-02-26T02:44:28;98216.11;;;8.11
34023;BMP280;20673;48.980;8.138;2024-02-26T02:46:54;98219.97;;;8.10
34023;BMP280;20673;48.980;8.138;2024-02-26T02:49:20;98208.79;;;8.06
34023;BMP280;20673;48.980;8.138;2024-02-26T02:51:48;98206.25;;;8.03
34023;BMP280;20673;48.980;8.138;2024-02-26T02:54:14;98206.76;;;8.01
34023;BMP280;20673;48.980;8.138;2024-02-26T02:56:40;98201.45;;;7.98
34023;BMP280;20673;48.980;8.138;2024-02-26T02:59:09;98198.52;;;7.97
34023;BMP280;20673;48.980;8.138;2024-02-26T03:01:35;98196.06;;;7.94
34023;BMP280;20673;48.980;8.138;2024-02-26T03:04:01;98194.40;;;7.89
34023;BMP280;20673;48.980;8.138;2024-02-26T03:06:27;98192.55;;;7.99
34023;BMP280;20673;48.980;8.138;2024-02-26T03:08:54;98196.40;;;7.98
34023;BMP280;20673;48.980;8.138;2024-02-26T03:11:21;98194.56;;;7.96
34023;BMP280;20673;48.980;8.138;2024-02-26T03:13:47;98188.62;;;7.94
34023;BMP280;20673;48.980;8.138;2024-02-26T03:16:13;98186.18;;;7.94
34023;BMP280;20673;48.980;8.138;2024-02-26T03:18:40;98187.59;;;7.88
34023;BMP280;20673;48.980;8.138;2024-02-26T03:21:06;98179.47;;;7.85
34023;BMP280;20673;48.980;8.138;2024-02-26T03:23:33;98175.50;;;7.85
34023;BMP280;20673;48.980;8.138;2024-02-26T03:26:02;98172.70;;;7.84
34023;BMP280;20673;48.980;8.138;2024-02-26T03:28:28;98168.15;;;7.84
34023;BMP280;20673;48.980;8.138;2024-02-26T03:30:54;98164.90;;;7.82
34023;BMP280;20673;48.980;8.138;2024-02-26T03:33:20;98163.47;;;7.80
34023;BMP280;20673;48.980;8.138;2024-02-26T03:35:46;98162.48;;;7.78
34023;BMP280;20673;48.980;8.138;2024-02-26T03:38:13;98157.24;;;7.77
34023;BMP280;20673;48.980;8.138;2024-02-26T03:40:39;98155.54;;;7.74
34023;BMP280;20673;48.980;8.138;2024-02-26T03:43:05;98156.93;;;7.74
34023;BMP280;20673;48.980;8.138;2024-02-26T03:45:33;98152.69;;;7.72
34023;BMP280;20673;48.980;8.138;2024-02-26T03:47:59;98153.89;;;7.74
34023;BMP280;20673;48.980;8.138;2024-02-26T03:50:25;98144.86;;;7.74
34023;BMP280;20673;48.980;8.138;2024-02-26T03:52:52;98148.48;;;7.71
34023;BMP280;20673;48.980;8.138;2024-02-26T03:55:18;98145.10;;;7.71
34023;BMP280;20673;48.980;8.138;2024-02-26T03:57:46;98142.00;;;7.70
34023;BMP280;20673;48.980;8.138;2024-02-26T04:00:13;98139.75;;;7.67
34023;BMP280;20673;48.980;8.138;2024-02-26T04:02:39;98143.22;;;7.72
34023;BMP280;20673;48.980;8.138;2024-02-26T04:05:11;98149.54;;;7.73
34023;BMP280;20673;48.980;8.138;2024-02-26T04:07:37;98145.50;;;7.73
34023;BMP280;20673;48.980;8.138;2024-02-26T04:10:10;98144.26;;;7.72
34023;BMP280;20673;48.980;8.138;2024-02-26T04:12:41;98152.91;;;7.70
34023;BMP280;20673;48.980;8.138;2024-02-26T04:15:09;98153.83;;;7.75
34023;BMP280;20673;48.980;8.138;2024-02-26T04:17:37;98161.99;;;7.78
34023;BMP280;20673;48.980;8.138;2024-02-26T04:20:04;98153.40;;;7.78
34023;BMP280;20673;48.980;8.138;2024-02-26T04:22:33;98157.31;;;7.74
34023;BMP280;20673;48.980;8.138;2024-02-26T04:25:00;98151.71;;;7.77
34023;BMP280;20673;48.980;8.138;2024-02-26T04:27:26;98157.06;;;7.75
34023;BMP280;20673;48.980;8.138;2024-02-26T04:29:52;98166.84;;;7.76
34023;BMP280;20673;48.980;8.138;2024-02-26T04:32:18;98169.72;;;7.72
34023;BMP280;20673;48.980;8.138;2024-02-26T04:34:44;98160.81;;;7.71
34023;BMP280;20673;48.980;8.138;2024-02-26T04:37:10;98159.86;;;7.70
34023;BMP280;20673;48.980;8.138;2024-02-26T04:39:36;98164.09;;;7.68
34023;BMP280;20673;48.980;8.138;2024-02-26T04:42:02;98165.20;;;7.67
34023;BMP280;20673;48.980;8.138;2024-02-26T04:44:29;98167.09;;;7.64
34023;BMP280;20673;48.980;8.138;2024-02-26T04:46:56;98175.37;;;7.67
34023;BMP280;20673;48.980;8.138;2024-02-26T04:49:22;98175.34;;;7.72
34023;BMP280;20673;48.980;8.138;2024-02-26T04:51:48;98177.43;;;7.67
34023;BMP280;20673;48.980;8.138;2024-02-26T04:54:15;98176.51;;;7.64
34023;BMP280;20673;48.980;8.138;2024-02-26T04:56:41;98176.99;;;7.66
34023;BMP280;20673;48.980;8.138;2024-02-26T04:59:07;98182.25;;;7.71
34023;BMP280;20673;48.980;8.138;2024-02-26T05:01:33;98181.89;;;7.68
34023;BMP280;20673;48.980;8.138;2024-02-26T05:03:59;98186.86;;;7.66
34023;BMP280;20673;48.980;8.138;2024-02-26T05:06:25;98189.58;;;7.62
34023;BMP280;20673;48.980;8.138;2024-02-26T05:08:51;98192.73;;;7.59
34023;BMP280;20673;48.980;8.138;2024-02-26T05:11:18;98204.85;;;7.57
34023;BMP280;20673;48.980;8.138;2024-02-26T05:13:44;98207.23;;;7.51
34023;BMP280;20673;48.980;8.138;2024-02-26T05:16:11;98203.39;;;7.52
34023;BMP280;20673;48.980;8.138;2024-02-26T05:18:37;98211.95;;;7.49
34023;BMP280;20673;48.980;8.138;2024-02-26T05:21:04;98215.92;;;7.48
34023;BMP280;20673;48.980;8.138;2024-02-26T05:23:30;98220.06;;;7.47
34023;BMP280;20673;48.980;8.138;2024-02-26T05:25:56;98217.49;;;7.50
34023;BMP280;20673;48.980;8.138;2024-02-26T05:28:22;98224.04;;;7.52
34023;BMP280;20673;48.980;8.138;2024-02-26T05:30:48;98219.39;;;7.48
34023;BMP280;20673;48.980;8.138;2024-02-26T05:33:14;98217.40;;;7.51
34023;BMP280;20673;48.980;8.138;2024-02-26T05:35:41;98221.62;;;7.50
34023;BMP280;20673;48.980;8.138;2024-02-26T05:38:07;98224.72;;;7.48
34023;BMP280;20673;48.980;8.138;2024-02-26T05:40:33;98223.68;;;7.48
34023;BMP280;20673;48.980;8.138;2024-02-26T05:42:59;98225.82;;;7.44
34023;BMP280;20673;48.980;8.138;2024-02-26T05:45:26;98229.98;;;7.45
34023;BMP280;20673;48.980;8.138;2024-02-26T05:47:52;98231.47;;;7.43
34023;BMP280;20673;48.980;8.138;2024-02-26T05:50:18;98227.81;;;7.42
34023;BMP280;20673;48.980;8.138;2024-02-26T05:52:44;98231.31;;;7.44
34023;BMP280;20673;48.980;8.138;2024-02-26T05:55:11;98232.00;;;7.47
34023;BMP280;20673;48.980;8.138;2024-02-26T05:57:37;98232.29;;;7.47
34023;BMP280;20673;48.980;8.138;2024-02-26T06:00:04;98230.11;;;7.46
34023;BMP280;20673;48.980;8.138;2024-02-26T06:02:30;98236.81;;;7.43
34023;BMP280;20673;48.980;8.138;2024-02-26T06:04:58;98235.81;;;7.45
34023;BMP280;20673;48.980;8.138;2024-02-26T06:07:24;98240.09;;;7.41
34023;BMP280;20673;48.980;8.138;2024-02-26T06:09:50;98245.66;;;7.41
34023;BMP280;20673;48.980;8.138;2024-02-26T06:12:17;98247.64;;;7.42
34023;BMP280;20673;48.980;8.138;2024-02-26T06:14:43;98248.37;;;7.43
34023;BMP280;20673;48.980;8.138;2024-02-26T06:17:09;98250.97;;;7.43
34023;BMP280;20673;48.980;8.138;2024-02-26T06:19:35;98254.86;;;7.42
34023;BMP280;20673;48.980;8.138;2024-02-26T06:22:01;98260.95;;;7.40
34023;BMP280;20673;48.980;8.138;2024-02-26T06:24:28;98256.84;;;7.42
34023;BMP280;20673;48.980;8.138;2024-02-26T06:26:54;98262.66;;;7.44
34023;BMP280;20673;48.980;8.138;2024-02-26T06:29:20;98265.31;;;7.42
34023;BMP280;20673;48.980;8.138;2024-02-26T06:31:46;98264.11;;;7.43
34023;BMP280;20673;48.980;8.138;2024-02-26T06:34:14;98267.58;;;7.43
34023;BMP280;20673;48.980;8.138;2024-02-26T06:36:40;98270.14;;;7.44
34023;BMP280;20673;48.980;8.138;2024-02-26T06:39:06;98270.51;;;7.43
34023;BMP280;20673;48.980;8.138;2024-02-26T06:41:33;98273.42;;;7.48
34023;BMP280;20673;48.980;8.138;2024-02-26T06:44:00;98272.76;;;7.49
34023;BMP280;20673;48.980;8.138;2024-02-26T06:46:26;98275.90;;;7.49
34023;BMP280;20673;48.980;8.138;2024-02-26T06:48:52;98270.90;;;7.51
34023;BMP280;20673;48.980;8.138;2024-02-26T06:51:19;98273.96;;;7.50
34023;BMP280;20673;48.980;8.138;2024-02-26T06:53:45;98279.33;;;7.49
34023;BMP280;20673;48.980;8.138;2024-02-26T06:56:11;98280.76;;;7.51
34023;BMP280;20673;48.980;8.138;2024-02-26T06:58:37;98286.04;;;7.52
34023;BMP280;20673;48.980;8.138;2024-02-26T07:01:03;98293.50;;;7.50
34023;BMP280;20673;48.980;8.138;2024-02-26T07:03:29;98287.83;;;7.52
34023;BMP280;20673;48.980;8.138;2024-02-26T07:05:56;98294.15;;;7.53
34023;BMP280;20673;48.980;8.138;2024-02-26T07:08:22;98294.76;;;7.53
34023;BMP280;20673;48.980;8.138;2024-02-26T07:10:48;98294.88;;;7.55
34023;BMP280;20673;48.980;8.138;2024-02-26T07:13:14;98295.78;;;7.60
34023;BMP280;20673;48.980;8.138;2024-02-26T07:15:40;98295.68;;;7.62
34023;BMP280;20673;48.980;8.138;2024-02-26T07:18:07;98302.86;;;7.63
34023;BMP280;20673;48.980;8.138;2024-02-26T07:20:33;98307.59;;;7.69
34023;BMP280;20673;48.980;8.138;2024-02-26T07:22:59;98299.34;;;7.77
34023;BMP280;20673;48.980;8.138;2024-02-26T07:25:25;98299.90;;;7.79
34023;BMP280;20673;48.980;8.138;2024-02-26T07:27:51;98299.76;;;7.83
34023;BMP280;20673;48.980;8.138;2024-02-26T07:30:17;98304.65;;;7.87
34023;BMP280;20673;48.980;8.138;2024-02-26T07:32:44;98308.22;;;7.95
34023;BMP280;20673;48.980;8.138;2024-02-26T07:35:10;98303.90;;;7.97
34023;BMP280;20673;48.980;8.138;2024-02-26T07:37:36;98309.07;;;8.03
34023;BMP280;20673;48.980;8.138;2024-02-26T07:40:04;98308.33;;;8.08
34023;BMP280;20673;48.980;8.138;2024-02-26T07:42:31;98299.92;;;8.18
34023;BMP280;20673;48.980;8.138;2024-02-26T07:44:57;98294.70;;;8.26
34023;BMP280;20673;48.980;8.138;2024-02-26T07:47:23;98302.75;;;8.36
34023;BMP280;20673;48.980;8.138;2024-02-26T07:49:49;98300.79;;;8.48
34023;BMP280;20673;48.980;8.138;2024-02-26T07:52:16;98306.07;;;8.62
34023;BMP280;20673;48.980;8.138;2024-02-26T07:54:42;98306.20;;;8.71
34023;BMP280;20673;48.980;8.138;2024-02-26T07:57:08;98307.90;;;8.75
34023;BMP280;20673;48.980;8.138;2024-02-26T07:59:34;98310.04;;;8.81
34023;BMP280;20673;48.980;8.138;2024-02-26T08:02:00;98307.86;;;8.85
34023;BMP280;20673;48.980;8.138;2024-02-26T08:04:30;98310.43;;;8.89
34023;BMP280;20673;48.980;8.138;2024-02-26T08:06:56;98320.53;;;8.93
34023;BMP280;20673;48.980;8.138;2024-02-26T08:09:22;98320.68;;;8.96
34023;BMP280;20673;48.980;8.138;2024-02-26T08:11:48;98317.06;;;8.94
34023;BMP280;20673;48.980;8.138;2024-02-26T08:14:14;98319.50;;;8.93
34023;BMP280;20673;48.980;8.138;2024-02-26T08:16:41;98319.84;;;9.01
34023;BMP280;20673;48.980;8.138;2024-02-26T08:19:07;98316.96;;;9.08
34023;BMP280;20673;48.980;8.138;2024-02-26T08:21:33;98321.43;;;9.21
34023;BMP280;20673;48.980;8.138;2024-02-26T08:23:59;98325.11;;;9.45
34023;BMP280;20673;48.980;8.138;2024-02-26T08:26:25;98327.11;;;9.80
34023;BMP280;20673;48.980;8.138;2024-02-26T08:28:51;98321.01;;;9.89
34023;BMP280;20673;48.980;8.138;2024-02-26T08:31:18;98323.14;;;10.04
34023;BMP280;20673;48.980;8.138;2024-02-26T08:33:44;98323.65;;;10.12
34023;BMP280;20673;48.980;8.138;2024-02-26T08:36:11;98336.15;;;10.23
34023;BMP280;20673;48.980;8.138;2024-02-26T08:38:37;98337.36;;;10.29
34023;BMP280;20673;48.980;8.138;2024-02-26T08:41:04;98337.90;;;10.25
34023;BMP280;20673;48.980;8.138;2024-02-26T08:43:30;98340.33;;;10.18
34023;BMP280;20673;48.980;8.138;2024-02-26T08:45:57;98340.15;;;10.25
34023;BMP280;20673;48.980;8.138;2024-02-26T08:48:24;98342.79;;;10.27
34023;BMP280;20673;48.980;8.138;2024-02-26T08:50:50;98342.58;;;10.29
34023;BMP280;20673;48.980;8.138;2024-02-26T08:53:17;98349.81;;;10.38
34023;BMP280;20673;48.980;8.138;2024-02-26T08:55:43;98354.19;;;10.45
34023;BMP280;20673;48.980;8.138;2024-02-26T08:58:09;98353.82;;;10.47
34023;BMP280;20673;48.980;8.138;2024-02-26T09:00:35;98359.43;;;10.50
34023;BMP280;20673;48.980;8.138;2024-02-26T09:03:01;98356.81;;;10.61
34023;BMP280;20673;48.980;8.138;2024-02-26T09:05:27;98346.08;;;10.71
34023;BMP280;20673;48.980;8.138;2024-02-26T09:07:53;98346.48;;;10.77
34023;BMP280;20673;48.980;8.138;2024-02-26T09:10:21;98348.20;;;10.62
34023;BMP280;20673;48.980;8.138;2024-02-26T09:12:48;98347.08;;;10.68
34023;BMP280;20673;48.980;8.138;2024-02-26T09:15:14;98351.92;;;10.69
34023;BMP280;20673;48.980;8.138;2024-02-26T09:17:40;98354.09;;;10.73
34023;BMP280;20673;48.980;8.138;2024-02-26T09:20:07;98359.83;;;10.78
34023;BMP280;20673;48.980;8.138;2024-02-26T09:22:35;98361.78;;;10.76
34023;BMP280;20673;48.980;8.138;2024-02-26T09:25:04;98358.40;;;10.79
34023;BMP280;20673;48.980;8.138;2024-02-26T09:27:31;98355.98;;;10.85
34023;BMP280;20673;48.980;8.138;2024-02-26T09:29:57;98363.12;;;10.98
34023;BMP280;20673;48.980;8.138;2024-02-26T09:32:23;98367.75;;;11.14
34023;BMP280;20673;48.980;8.138;2024-02-26T09:34:50;98363.93;;;11.26
34023;BMP280;20673;48.980;8.138;2024-02-26T09:37:16;98375.03;;;11.46
34023;BMP280;20673;48.980;8.138;2024-02-26T09:39:43;98376.34;;;11.61
34023;BMP280;20673;48.980;8.138;2024-02-26T09:42:11;98372.36;;;11.92
34023;BMP280;20673;48.980;8.138;2024-02-26T09:44:40;98372.34;;;12.09
34023;BMP280;20673;48.980;8.138;2024-02-26T09:47:12;98374.70;;;12.06
34023;BMP280;20673;48.980;8.138;2024-02-26T09:49:45;98376.09;;;12.22
34023;BMP280;20673;48.980;8.138;2024-02-26T09:52:12;98371.74;;;12.18
34023;BMP280;20673;48.980;8.138;2024-02-26T09:54:39;98371.32;;;12.30
34023;BMP280;20673;48.980;8.138;2024-02-26T09:57:09;98369.90;;;12.34
34023;BMP280;20673;48.980;8.138;2024-02-26T09:59:39;98376.90;;;12.24
34023;BMP280;20673;48.980;8.138;2024-02-26T10:02:15;98376.26;;;12.31
34023;BMP280;20673;48.980;8.138;2024-02-26T10:04:42;98378.15;;;12.37
34023;BMP280;20673;48.980;8.138;2024-02-26T10:07:11;98381.50;;;12.43
34023;BMP280;20673;48.980;8.138;2024-02-26T10:09:38;98378.68;;;12.40
34023;BMP280;20673;48.980;8.138;2024-02-26T10:12:06;98379.65;;;12.47
34023;BMP280;20673;48.980;8.138;2024-02-26T10:14:33;98378.06;;;12.50
34023;BMP280;20673;48.980;8.138;2024-02-26T10:16:59;98379.83;;;12.43
34023;BMP280;20673;48.980;8.138;2024-02-26T10:19:30;98386.01;;;12.40
34023;BMP280;20673;48.980;8.138;2024-02-26T10:21:58;98389.28;;;12.45
34023;BMP280;20673;48.980;8.138;2024-02-26T10:24:25;98386.56;;;12.51
34023;BMP280;20673;48.980;8.138;2024-02-26T10:26:55;98387.48;;;12.53
34023;BMP280;20673;48.980;8.138;2024-02-26T10:29:25;98393.08;;;12.56
34023;BMP280;20673;48.980;8.138;2024-02-26T10:31:53;98396.90;;;12.70
34023;BMP280;20673;48.980;8.138;2024-02-26T10:34:20;98406.49;;;12.87
34023;BMP280;20673;48.980;8.138;2024-02-26T10:36:46;98412.65;;;13.04
34023;BMP280;20673;48.980;8.138;2024-02-26T10:39:13;98420.31;;;13.15
34023;BMP280;20673;48.980;8.138;2024-02-26T10:41:44;98411.33;;;13.24
34023;BMP280;20673;48.980;8.138;2024-02-26T10:44:12;98414.44;;;13.38
34023;BMP280;20673;48.980;8.138;2024-02-26T10:46:40;98407.49;;;13.55
34023;BMP280;20673;48.980;8.138;2024-02-26T10:49:15;98402.46;;;13.69
34023;BMP280;20673;48.980;8.138;2024-02-26T10:51:45;98411.06;;;13.87
34023;BMP280;20673;48.980;8.138;2024-02-26T10:54:15;98417.95;;;14.43
34023;BMP280;20673;48.980;8.138;2024-02-26T10:59:19;98426.40;;;15.96
34023;BMP280;20673;48.980;8.138;2024-02-26T11:01:48;98427.70;;;16.56
34023;BMP280;20673;48.980;8.138;2024-02-26T11:04:16;98420.43;;;16.92
34023;BMP280;20673;48.980;8.138;2024-02-26T11:06:45;98417.26;;;16.94
34023;BMP280;20673;48.980;8.138;2024-02-26T11:09:15;98421.75;;;17.25
34023;BMP280;20673;48.980;8.138;2024-02-26T11:11:42;98415.17;;;17.47
34023;BMP280;20673;48.980;8.138;2024-02-26T11:14:09;98414.06;;;17.85
34023;BMP280;20673;48.980;8.138;2024-02-26T11:16:37;98415.57;;;18.57
34023;BMP280;20673;48.980;8.138;2024-02-26T11:19:08;98409.04;;;19.00
34023;BMP280;20673;48.980;8.138;2024-02-26T11:21:35;98411.09;;;19.39
34023;BMP280;20673;48.980;8.138;2024-02-26T11:24:13;98415.15;;;19.03
34023;BMP280;20673;48.980;8.138;2024-02-26T11:26:48;98423.78;;;18.58
34023;BMP280;20673;48.980;8.138;2024-02-26T11:29:20;98425.26;;;17.91
34023;BMP280;20673;48.980;8.138;2024-02-26T11:31:47;98423.08;;;17.64
34023;BMP280;20673;48.980;8.138;2024-02-26T11:34:14;98426.93;;;17.26
34023;BMP280;20673;48.980;8.138;2024-02-26T11:36:40;98421.17;;;17.06
34023;BMP280;20673;48.980;8.138;2024-02-26T11:39:08;98420.62;;;17.23
34023;BMP280;20673;48.980;8.138;2024-02-26T11:41:36;98421.81;;;17.21
34023;BMP280;20673;48.980;8.138;2024-02-26T11:44:02;98411.36;;;17.13
34023;BMP280;20673;48.980;8.138;2024-02-26T11:46:41;98414.47;;;17.24
34023;BMP280;20673;48.980;8.138;2024-02-26T11:51:58;98409.06;;;17.71
34023;BMP280;20673;48.980;8.138;2024-02-26T12:00:15;98428.54;;;16.59
34023;BMP280;20673;48.980;8.138;2024-02-26T12:02:49;98426.01;;;16.47
34023;BMP280;20673;48.980;8.138;2024-02-26T12:05:21;98428.86;;;16.61
34023;BMP280;20673;48.980;8.138;2024-02-26T12:07:56;98426.19;;;16.45
34023;BMP280;20673;48.980;8.138;2024-02-26T12:10:31;98432.47;;;16.41
34023;BMP280;20673;48.980;8.138;2024-02-26T12:13:17;98432.76;;;16.12
34023;BMP280;20673;48.980;8.138;2024-02-26T12:15:57;98435.01;;;15.79
34023;BMP280;20673;48.980;8.138;2024-02-26T12:18:24;98436.71;;;15.66
34023;BMP280;20673;48.980;8.138;2024-02-26T12:21:03;98432.37;;;15.54
34023;BMP280;20673;48.980;8.138;2024-02-26T12:23:30;98435.72;;;15.57
34023;BMP280;20673;48.980;8.138;2024-02-26T12:28:46;98441.87;;;15.43
34023;BMP280;20673;48.980;8.138;2024-02-26T12:31:13;98434.70;;;15.70
34023;BMP280;20673;48.980;8.138;2024-02-26T12:33:40;98435.41;;;15.94
34023;BMP280;20673;48.980;8.138;2024-02-26T12:36:07;98424.98;;;16.14
34023;BMP280;20673;48.980;8.138;2024-02-26T12:38:33;98432.86;;;16.65
34023;BMP280;20673;48.980;8.138;2024-02-26T12:41:02;98422.78;;;17.14
34023;BMP280;20673;48.980;8.138;2024-02-26T12:43:29;98423.36;;;17.10
34023;BMP280;20673;48.980;8.138;2024-02-26T12:45:56;98428.65;;;17.15
34023;BMP280;20673;48.980;8.138;2024-02-26T12:48:22;98431.83;;;17.23
34023;BMP280;20673;48.980;8.138;2024-02-26T12:50:48;98431.45;;;16.94
34023;BMP280;20673;48.980;8.138;2024-02-26T12:53:14;98436.40;;;16.60
34023;BMP280;20673;48.980;8.138;2024-02-26T12:55:42;98437.65;;;16.56
34023;BMP280;20673;48.980;8.138;2024-02-26T12:58:08;98437.61;;;16.57
34023;BMP280;20673;48.980;8.138;2024-02-26T13:00:35;98438.17;;;16.66
34023;BMP280;20673;48.980;8.138;2024-02-26T13:03:02;98434.23;;;16.61
34023;BMP280;20673;48.980;8.138;2024-02-26T13:05:29;98440.87;;;16.64
34023;BMP280;20673;48.980;8.138;2024-02-26T13:07:56;98435.49;;;16.82
34023;BMP280;20673;48.980;8.138;2024-02-26T13:10:22;98436.72;;;16.81
34023;BMP280;20673;48.980;8.138;2024-02-26T13:12:49;98440.17;;;16.96
34023;BMP280;20673;48.980;8.138;2024-02-26T13:15:22;98443.93;;;17.15
34023;BMP280;20673;48.980;8.138;2024-02-26T13:17:49;98443.69;;;17.50
34023;BMP280;20673;48.980;8.138;2024-02-26T13:20:29;98437.79;;;17.93
34023;BMP280;20673;48.980;8.138;2024-02-26T13:23:06;98434.28;;;17.95
34023;BMP280;20673;48.980;8.138;2024-02-26T13:25:34;98439.91;;;17.71
34023;BMP280;20673;48.980;8.138;2024-02-26T13:28:13;98442.00;;;17.76
34023;BMP280;20673;48.980;8.138;2024-02-26T13:30:39;98448.96;;;17.62
34023;BMP280;20673;48.980;8.138;2024-02-26T13:33:12;98450.73;;;17.62
34023;BMP280;20673;48.980;8.138;2024-02-26T13:35:39;98437.33;;;17.82
34023;BMP280;20673;48.980;8.138;2024-02-26T13:38:06;98440.72;;;18.10
34023;BMP280;20673;48.980;8.138;2024-02-26T13:40:32;98441.22;;;18.65
34023;BMP280;20673;48.980;8.138;2024-02-26T13:43:00;98448.47;;;18.86
34023;BMP280;20673;48.980;8.138;2024-02-26T13:45:26;98448.97;;;19.43
34023;BMP280;20673;48.980;8.138;2024-02-26T13:47:54;98445.83;;;19.29
34023;BMP280;20673;48.980;8.138;2024-02-26T13:50:20;98446.68;;;19.55
34023;BMP280;20673;48.980;8.138;2024-02-26T13:52:48;98452.61;;;19.68
34023;BMP280;20673;48.980;8.138;2024-02-26T13:55:16;98452.68;;;19.76
34023;BMP280;20673;48.980;8.138;2024-02-26T13:57:42;98446.84;;;19.95
34023;BMP280;20673;48.980;8.138;2024-02-26T14:00:09;98444.58;;;19.91
34023;BMP280;20673;48.980;8.138;2024-02-26T14:02:36;98442.39;;;19.69
34023;BMP280;20673;48.980;8.138;2024-02-26T14:05:02;98447.16;;;18.93
34023;BMP280;20673;48.980;8.138;2024-02-26T14:07:30;98442.59;;;18.21
34023;BMP280;20673;48.980;8.138;2024-02-26T14:09:58;98446.12;;;18.30
34023;BMP280;20673;48.980;8.138;2024-02-26T14:12:24;98446.31;;;18.15
34023;BMP280;20673;48.980;8.138;2024-02-26T14:14:51;98441.14;;;17.83
34023;BMP280;20673;48.980;8.138;2024-02-26T14:17:19;98440.86;;;17.87
34023;BMP280;20673;48.980;8.138;2024-02-26T14:19:45;98439.60;;;17.81
34023;BMP280;20673;48.980;8.138;2024-02-26T14:22:14;98448.18;;;17.56
34023;BMP280;20673;48.980;8.138;2024-02-26T14:24:42;98445.26;;;17.49
34023;BMP280;20673;48.980;8.138;2024-02-26T14:27:10;98453.84;;;17.60
34023;BMP280;20673;48.980;8.138;2024-02-26T14:29:38;98449.98;;;17.58